Alpine Forest, California
Current Conditions -  °F | °C
As of 12:15 AM on Thursday 18 Dec 2014 (Local Time) from KTSP Reporting Station
Broken Clouds Broken Clouds  
Wind Chill:   Ceiling: 12000
Heat Index:   Visibility: 10mi
Dew Point:   Wind: 0mph
Humidity: 100%   Direction: NA
Pressure: 30.1"   Gusts: NA
Location:  35.1338°N, 118.552°W
Report Text: KTSP 180815Z AUTO 00000KT 10SM BKN120 00/00 A3010 RMK AO2
Loading
Personal Weather Stations






























Interactive Weather Map New forecast layout! Learn more

10-Day Weather Forecast

Advertisements
Track Severe Weather on mobile